sensor_id;sensor_type;location;lat;lon;timestamp;temperature;humidity
17208;DHT22;8720;48.488;9.202;2022-10-03T00:03:06;13.50;81.10
17208;DHT22;8720;48.488;9.202;2022-10-03T00:06:00;13.40;80.60
17208;DHT22;8720;48.488;9.202;2022-10-03T00:09:00;13.40;80.90
17208;DHT22;8720;48.488;9.202;2022-10-03T00:11:52;13.30;80.90
17208;DHT22;8720;48.488;9.202;2022-10-03T00:14:35;13.30;80.90
17208;DHT22;8720;48.488;9.202;2022-10-03T00:17:13;13.20;81.10
17208;DHT22;8720;48.488;9.202;2022-10-03T00:19:52;13.20;81.30
17208;DHT22;8720;48.488;9.202;2022-10-03T00:22:35;13.10;81.10
17208;DHT22;8720;48.488;9.202;2022-10-03T00:25:26;13.10;81.00
17208;DHT22;8720;48.488;9.202;2022-10-03T00:28:11;13.00;80.60
17208;DHT22;8720;48.488;9.202;2022-10-03T00:31:06;13.00;80.70
17208;DHT22;8720;48.488;9.202;2022-10-03T00:33:46;13.00;80.80
17208;DHT22;8720;48.488;9.202;2022-10-03T00:36:34;12.90;81.30
17208;DHT22;8720;48.488;9.202;2022-10-03T00:39:27;12.90;82.70
17208;DHT22;8720;48.488;9.202;2022-10-03T00:42:34;12.90;82.60
17208;DHT22;8720;48.488;9.202;2022-10-03T00:46:02;12.90;83.10
17208;DHT22;8720;48.488;9.202;2022-10-03T00:52:27;12.90;83.70
17208;DHT22;8720;48.488;9.202;2022-10-03T00:55:19;12.90;84.40
17208;DHT22;8720;48.488;9.202;2022-10-03T00:58:20;12.90;84.50
17208;DHT22;8720;48.488;9.202;2022-10-03T01:01:20;12.90;83.80
17208;DHT22;8720;48.488;9.202;2022-10-03T01:03:59;13.00;83.70
17208;DHT22;8720;48.488;9.202;2022-10-03T01:06:45;12.90;84.00
17208;DHT22;8720;48.488;9.202;2022-10-03T01:09:22;12.90;84.00
17208;DHT22;8720;48.488;9.202;2022-10-03T01:12:16;12.90;84.00
17208;DHT22;8720;48.488;9.202;2022-10-03T01:15:07;12.90;83.80
17208;DHT22;8720;48.488;9.202;2022-10-03T01:17:53;12.90;84.00
17208;DHT22;8720;48.488;9.202;2022-10-03T01:20:43;13.00;84.50
17208;DHT22;8720;48.488;9.202;2022-10-03T01:23:42;13.00;84.70
17208;DHT22;8720;48.488;9.202;2022-10-03T01:26:46;13.00;84.20
17208;DHT22;8720;48.488;9.202;2022-10-03T01:29:24;13.00;84.50
17208;DHT22;8720;48.488;9.202;2022-10-03T01:32:19;13.00;85.50
17208;DHT22;8720;48.488;9.202;2022-10-03T01:34:59;13.00;85.10
17208;DHT22;8720;48.488;9.202;2022-10-03T01:37:39;13.00;85.30
17208;DHT22;8720;48.488;9.202;2022-10-03T01:40:21;13.00;85.40
17208;DHT22;8720;48.488;9.202;2022-10-03T01:43:01;13.00;85.70
17208;DHT22;8720;48.488;9.202;2022-10-03T01:45:44;13.10;85.70
17208;DHT22;8720;48.488;9.202;2022-10-03T01:48:32;13.10;85.80
17208;DHT22;8720;48.488;9.202;2022-10-03T01:51:10;13.10;85.80
17208;DHT22;8720;48.488;9.202;2022-10-03T01:54:00;13.10;86.40
17208;DHT22;8720;48.488;9.202;2022-10-03T01:56:45;13.10;84.50
17208;DHT22;8720;48.488;9.202;2022-10-03T01:59:32;13.10;85.70
17208;DHT22;8720;48.488;9.202;2022-10-03T02:02:13;13.10;85.00
17208;DHT22;8720;48.488;9.202;2022-10-03T02:04:54;13.10;84.80
17208;DHT22;8720;48.488;9.202;2022-10-03T02:07:38;13.10;85.00
17208;DHT22;8720;48.488;9.202;2022-10-03T02:10:18;13.10;84.50
17208;DHT22;8720;48.488;9.202;2022-10-03T02:12:57;13.10;84.10
17208;DHT22;8720;48.488;9.202;2022-10-03T02:18:14;13.10;84.90
17208;DHT22;8720;48.488;9.202;2022-10-03T02:20:52;13.10;83.60
17208;DHT22;8720;48.488;9.202;2022-10-03T02:23:37;13.10;84.30
17208;DHT22;8720;48.488;9.202;2022-10-03T02:26:33;13.10;83.50
17208;DHT22;8720;48.488;9.202;2022-10-03T02:29:50;13.10;83.00
17208;DHT22;8720;48.488;9.202;2022-10-03T02:33:06;13.00;82.40
17208;DHT22;8720;48.488;9.202;2022-10-03T02:36:52;13.00;82.30
17208;DHT22;8720;48.488;9.202;2022-10-03T02:43:37;12.90;82.50
17208;DHT22;8720;48.488;9.202;2022-10-03T02:47:08;12.90;82.40
17208;DHT22;8720;48.488;9.202;2022-10-03T02:50:25;12.90;82.70
17208;DHT22;8720;48.488;9.202;2022-10-03T02:56:58;12.90;83.00
17208;DHT22;8720;48.488;9.202;2022-10-03T03:00:08;12.90;83.00
17208;DHT22;8720;48.488;9.202;2022-10-03T03:06:16;12.90;82.90
17208;DHT22;8720;48.488;9.202;2022-10-03T03:09:19;12.90;83.20
17208;DHT22;8720;48.488;9.202;2022-10-03T03:12:27;12.90;83.60
17208;DHT22;8720;48.488;9.202;2022-10-03T03:18:47;12.90;84.20
17208;DHT22;8720;48.488;9.202;2022-10-03T03:21:38;12.90;85.30
17208;DHT22;8720;48.488;9.202;2022-10-03T03:24:20;12.90;85.10
17208;DHT22;8720;48.488;9.202;2022-10-03T03:27:37;12.90;85.20
17208;DHT22;8720;48.488;9.202;2022-10-03T03:30:17;13.00;84.80
17208;DHT22;8720;48.488;9.202;2022-10-03T03:32:58;13.00;86.20
17208;DHT22;8720;48.488;9.202;2022-10-03T03:35:48;13.00;85.90
17208;DHT22;8720;48.488;9.202;2022-10-03T03:38:31;13.00;86.10
17208;DHT22;8720;48.488;9.202;2022-10-03T03:41:25;13.10;86.30
17208;DHT22;8720;48.488;9.202;2022-10-03T03:47:29;13.10;85.70
17208;DHT22;8720;48.488;9.202;2022-10-03T03:50:24;13.10;85.40
17208;DHT22;8720;48.488;9.202;2022-10-03T03:56:34;13.10;85.10
17208;DHT22;8720;48.488;9.202;2022-10-03T03:59:31;13.20;85.60
17208;DHT22;8720;48.488;9.202;2022-10-03T04:02:25;13.20;85.40
17208;DHT22;8720;48.488;9.202;2022-10-03T04:05:16;13.20;85.20
17208;DHT22;8720;48.488;9.202;2022-10-03T04:08:09;13.20;85.40
17208;DHT22;8720;48.488;9.202;2022-10-03T04:11:01;13.20;84.80
17208;DHT22;8720;48.488;9.202;2022-10-03T04:14:06;13.20;84.00
17208;DHT22;8720;48.488;9.202;2022-10-03T04:17:04;13.20;83.30
17208;DHT22;8720;48.488;9.202;2022-10-03T04:20:19;13.20;82.70
17208;DHT22;8720;48.488;9.202;2022-10-03T04:23:09;13.10;82.60
17208;DHT22;8720;48.488;9.202;2022-10-03T04:26:12;13.10;81.40
17208;DHT22;8720;48.488;9.202;2022-10-03T04:29:06;13.00;80.70
17208;DHT22;8720;48.488;9.202;2022-10-03T04:32:06;13.00;80.60
17208;DHT22;8720;48.488;9.202;2022-10-03T04:34:53;12.90;80.20
17208;DHT22;8720;48.488;9.202;2022-10-03T04:37:39;12.90;79.90
17208;DHT22;8720;48.488;9.202;2022-10-03T04:40:22;12.80;80.20
17208;DHT22;8720;48.488;9.202;2022-10-03T04:43:06;12.70;80.30
17208;DHT22;8720;48.488;9.202;2022-10-03T04:45:56;12.70;81.00
17208;DHT22;8720;48.488;9.202;2022-10-03T04:48:39;12.60;81.30
17208;DHT22;8720;48.488;9.202;2022-10-03T04:51:17;12.60;82.80
17208;DHT22;8720;48.488;9.202;2022-10-03T04:53:54;12.60;82.90
17208;DHT22;8720;48.488;9.202;2022-10-03T04:56:49;12.60;83.50
17208;DHT22;8720;48.488;9.202;2022-10-03T04:59:45;12.60;82.90
17208;DHT22;8720;48.488;9.202;2022-10-03T05:02:29;12.60;82.80
17208;DHT22;8720;48.488;9.202;2022-10-03T05:05:23;12.60;83.60
17208;DHT22;8720;48.488;9.202;2022-10-03T05:08:11;12.60;83.30
17208;DHT22;8720;48.488;9.202;2022-10-03T05:11:00;12.60;83.30
17208;DHT22;8720;48.488;9.202;2022-10-03T05:13:57;12.60;83.00
17208;DHT22;8720;48.488;9.202;2022-10-03T05:16:41;12.50;82.40
17208;DHT22;8720;48.488;9.202;2022-10-03T05:19:36;12.50;82.50
17208;DHT22;8720;48.488;9.202;2022-10-03T05:22:22;12.50;82.00
17208;DHT22;8720;48.488;9.202;2022-10-03T05:25:19;12.50;82.50
17208;DHT22;8720;48.488;9.202;2022-10-03T05:28:03;12.50;82.50
17208;DHT22;8720;48.488;9.202;2022-10-03T05:30:43;12.40;84.40
17208;DHT22;8720;48.488;9.202;2022-10-03T05:33:28;12.40;84.70
17208;DHT22;8720;48.488;9.202;2022-10-03T05:36:15;12.40;84.00
17208;DHT22;8720;48.488;9.202;2022-10-03T05:39:23;12.50;84.00
17208;DHT22;8720;48.488;9.202;2022-10-03T05:41:54;12.50;83.20
17208;DHT22;8720;48.488;9.202;2022-10-03T05:44:40;12.50;84.30
17208;DHT22;8720;48.488;9.202;2022-10-03T05:47:12;12.50;83.70
17208;DHT22;8720;48.488;9.202;2022-10-03T05:50:32;12.50;84.60
17208;DHT22;8720;48.488;9.202;2022-10-03T05:53:29;12.60;83.60
17208;DHT22;8720;48.488;9.202;2022-10-03T05:56:17;12.60;83.80
17208;DHT22;8720;48.488;9.202;2022-10-03T05:59:23;12.60;84.20
17208;DHT22;8720;48.488;9.202;2022-10-03T06:02:44;12.60;83.60
17208;DHT22;8720;48.488;9.202;2022-10-03T06:05:48;12.60;83.40
17208;DHT22;8720;48.488;9.202;2022-10-03T06:08:46;12.60;83.60
17208;DHT22;8720;48.488;9.202;2022-10-03T06:11:45;12.70;83.80
17208;DHT22;8720;48.488;9.202;2022-10-03T06:14:30;12.70;84.00
17208;DHT22;8720;48.488;9.202;2022-10-03T06:17:22;12.70;84.40
17208;DHT22;8720;48.488;9.202;2022-10-03T06:20:10;12.70;83.60
17208;DHT22;8720;48.488;9.202;2022-10-03T06:23:32;12.70;83.80
17208;DHT22;8720;48.488;9.202;2022-10-03T06:29:50;12.80;83.60
17208;DHT22;8720;48.488;9.202;2022-10-03T06:33:07;12.70;82.80
17208;DHT22;8720;48.488;9.202;2022-10-03T06:36:22;12.80;83.00
17208;DHT22;8720;48.488;9.202;2022-10-03T06:43:21;12.80;83.70
17208;DHT22;8720;48.488;9.202;2022-10-03T06:46:22;12.80;84.00
17208;DHT22;8720;48.488;9.202;2022-10-03T06:49:45;12.90;84.20
17208;DHT22;8720;48.488;9.202;2022-10-03T07:10:09;13.00;83.40
17208;DHT22;8720;48.488;9.202;2022-10-03T07:12:58;13.00;82.60
17208;DHT22;8720;48.488;9.202;2022-10-03T07:16:13;13.00;83.00
17208;DHT22;8720;48.488;9.202;2022-10-03T07:19:15;13.10;82.80
17208;DHT22;8720;48.488;9.202;2022-10-03T07:29:38;13.20;83.40
17208;DHT22;8720;48.488;9.202;2022-10-03T07:36:05;13.30;83.10
17208;DHT22;8720;48.488;9.202;2022-10-03T07:42:31;13.40;83.50
17208;DHT22;8720;48.488;9.202;2022-10-03T07:45:28;13.40;83.70
17208;DHT22;8720;48.488;9.202;2022-10-03T07:48:17;13.50;83.70
17208;DHT22;8720;48.488;9.202;2022-10-03T07:51:17;13.60;83.60
17208;DHT22;8720;48.488;9.202;2022-10-03T07:57:31;13.70;82.40
17208;DHT22;8720;48.488;9.202;2022-10-03T08:00:25;13.90;84.70
17208;DHT22;8720;48.488;9.202;2022-10-03T08:06:33;14.20;83.70
17208;DHT22;8720;48.488;9.202;2022-10-03T08:09:35;14.40;85.70
17208;DHT22;8720;48.488;9.202;2022-10-03T08:12:49;14.50;83.20
17208;DHT22;8720;48.488;9.202;2022-10-03T08:15:43;14.70;80.20
17208;DHT22;8720;48.488;9.202;2022-10-03T08:18:55;14.80;82.50
17208;DHT22;8720;48.488;9.202;2022-10-03T08:21:49;14.90;80.10
17208;DHT22;8720;48.488;9.202;2022-10-03T08:31:22;15.10;80.10
17208;DHT22;8720;48.488;9.202;2022-10-03T08:34:33;15.20;78.30
17208;DHT22;8720;48.488;9.202;2022-10-03T08:37:46;15.20;77.00
17208;DHT22;8720;48.488;9.202;2022-10-03T08:54:15;15.30;76.70
17208;DHT22;8720;48.488;9.202;2022-10-03T08:57:22;15.30;77.10
17208;DHT22;8720;48.488;9.202;2022-10-03T09:00:23;15.30;75.90
17208;DHT22;8720;48.488;9.202;2022-10-03T09:03:38;15.20;75.00
17208;DHT22;8720;48.488;9.202;2022-10-03T09:06:55;15.20;74.70
17208;DHT22;8720;48.488;9.202;2022-10-03T09:10:13;15.20;75.30
17208;DHT22;8720;48.488;9.202;2022-10-03T09:13:46;15.20;75.70
17208;DHT22;8720;48.488;9.202;2022-10-03T09:17:00;15.20;75.90
17208;DHT22;8720;48.488;9.202;2022-10-03T09:19:50;15.30;77.10
17208;DHT22;8720;48.488;9.202;2022-10-03T09:23:13;15.30;77.20
17208;DHT22;8720;48.488;9.202;2022-10-03T09:26:40;15.40;76.50
17208;DHT22;8720;48.488;9.202;2022-10-03T09:36:28;15.90;76.60
17208;DHT22;8720;48.488;9.202;2022-10-03T09:39:43;16.10;72.50
17208;DHT22;8720;48.488;9.202;2022-10-03T09:46:43;16.50;70.20
17208;DHT22;8720;48.488;9.202;2022-10-03T09:53:25;16.70;69.60
17208;DHT22;8720;48.488;9.202;2022-10-03T10:03:47;16.90;68.20
17208;DHT22;8720;48.488;9.202;2022-10-03T10:06:55;17.00;66.60
17208;DHT22;8720;48.488;9.202;2022-10-03T10:10:13;17.10;67.90
17208;DHT22;8720;48.488;9.202;2022-10-03T10:13:13;17.00;67.50
17208;DHT22;8720;48.488;9.202;2022-10-03T10:16:23;17.00;67.10
17208;DHT22;8720;48.488;9.202;2022-10-03T10:26:03;17.10;66.90
17208;DHT22;8720;48.488;9.202;2022-10-03T10:29:10;17.10;68.30
17208;DHT22;8720;48.488;9.202;2022-10-03T10:36:33;17.00;66.30
17208;DHT22;8720;48.488;9.202;2022-10-03T10:47:09;17.00;65.30
17208;DHT22;8720;48.488;9.202;2022-10-03T10:50:36;17.00;67.70
17208;DHT22;8720;48.488;9.202;2022-10-03T10:54:14;17.00;67.60
17208;DHT22;8720;48.488;9.202;2022-10-03T10:57:36;17.00;67.80
17208;DHT22;8720;48.488;9.202;2022-10-03T11:00:41;17.10;66.30
17208;DHT22;8720;48.488;9.202;2022-10-03T11:07:47;17.00;66.30
17208;DHT22;8720;48.488;9.202;2022-10-03T11:10:59;17.00;66.80
17208;DHT22;8720;48.488;9.202;2022-10-03T11:14:14;16.90;67.60
17208;DHT22;8720;48.488;9.202;2022-10-03T11:17:42;16.90;64.60
17208;DHT22;8720;48.488;9.202;2022-10-03T11:21:11;16.90;66.20
17208;DHT22;8720;48.488;9.202;2022-10-03T11:27:48;16.80;64.40
17208;DHT22;8720;48.488;9.202;2022-10-03T11:34:43;16.90;63.70
17208;DHT22;8720;48.488;9.202;2022-10-03T11:37:40;16.90;64.60
17208;DHT22;8720;48.488;9.202;2022-10-03T11:40:25;16.90;65.90
17208;DHT22;8720;48.488;9.202;2022-10-03T11:46:21;17.00;63.20
17208;DHT22;8720;48.488;9.202;2022-10-03T11:49:08;17.10;63.60
17208;DHT22;8720;48.488;9.202;2022-10-03T11:51:54;17.20;65.50
17208;DHT22;8720;48.488;9.202;2022-10-03T11:54:34;17.30;65.40
17208;DHT22;8720;48.488;9.202;2022-10-03T11:57:08;17.30;65.70
17208;DHT22;8720;48.488;9.202;2022-10-03T11:59:55;17.40;65.20
17208;DHT22;8720;48.488;9.202;2022-10-03T12:03:11;17.40;63.30
17208;DHT22;8720;48.488;9.202;2022-10-03T12:05:51;17.40;60.90
17208;DHT22;8720;48.488;9.202;2022-10-03T12:08:50;17.40;62.40
17208;DHT22;8720;48.488;9.202;2022-10-03T12:11:36;17.40;63.10
17208;DHT22;8720;48.488;9.202;2022-10-03T12:14:23;17.40;62.70
17208;DHT22;8720;48.488;9.202;2022-10-03T12:17:07;17.40;60.20
17208;DHT22;8720;48.488;9.202;2022-10-03T12:19:51;17.50;61.10
17208;DHT22;8720;48.488;9.202;2022-10-03T12:22:41;17.60;61.70
17208;DHT22;8720;48.488;9.202;2022-10-03T12:25:22;17.60;59.10
17208;DHT22;8720;48.488;9.202;2022-10-03T12:28:07;17.60;60.40
17208;DHT22;8720;48.488;9.202;2022-10-03T12:30:47;17.60;59.50
17208;DHT22;8720;48.488;9.202;2022-10-03T12:33:35;17.70;59.70
17208;DHT22;8720;48.488;9.202;2022-10-03T12:36:14;17.70;59.50
17208;DHT22;8720;48.488;9.202;2022-10-03T12:38:55;17.80;61.60
17208;DHT22;8720;48.488;9.202;2022-10-03T12:41:55;17.90;59.90
17208;DHT22;8720;48.488;9.202;2022-10-03T12:44:43;17.90;57.90
17208;DHT22;8720;48.488;9.202;2022-10-03T12:47:27;18.00;58.70
17208;DHT22;8720;48.488;9.202;2022-10-03T12:50:10;18.10;58.70
17208;DHT22;8720;48.488;9.202;2022-10-03T12:53:01;18.20;59.00
17208;DHT22;8720;48.488;9.202;2022-10-03T12:55:58;18.20;58.80
17208;DHT22;8720;48.488;9.202;2022-10-03T12:58:47;18.20;59.00
17208;DHT22;8720;48.488;9.202;2022-10-03T13:01:26;18.20;58.80
17208;DHT22;8720;48.488;9.202;2022-10-03T13:04:03;18.20;58.90
17208;DHT22;8720;48.488;9.202;2022-10-03T13:06:56;18.20;60.60
17208;DHT22;8720;48.488;9.202;2022-10-03T13:10:03;18.10;58.10
17208;DHT22;8720;48.488;9.202;2022-10-03T13:12:46;18.10;58.00
17208;DHT22;8720;48.488;9.202;2022-10-03T13:15:42;18.00;59.20
17208;DHT22;8720;48.488;9.202;2022-10-03T13:18:40;18.00;57.40
17208;DHT22;8720;48.488;9.202;2022-10-03T13:21:16;17.90;58.60
17208;DHT22;8720;48.488;9.202;2022-10-03T13:23:50;17.80;59.30
17208;DHT22;8720;48.488;9.202;2022-10-03T13:26:32;17.70;59.70
17208;DHT22;8720;48.488;9.202;2022-10-03T13:29:21;17.60;58.70
17208;DHT22;8720;48.488;9.202;2022-10-03T13:32:12;17.60;58.60
17208;DHT22;8720;48.488;9.202;2022-10-03T13:35:00;17.50;58.60
17208;DHT22;8720;48.488;9.202;2022-10-03T13:40:55;17.40;58.50
17208;DHT22;8720;48.488;9.202;2022-10-03T13:43:35;17.40;59.50
17208;DHT22;8720;48.488;9.202;2022-10-03T13:46:12;17.40;60.20
17208;DHT22;8720;48.488;9.202;2022-10-03T13:48:47;17.50;59.90
17208;DHT22;8720;48.488;9.202;2022-10-03T13:51:30;17.50;59.90
17208;DHT22;8720;48.488;9.202;2022-10-03T13:54:08;17.60;59.70
17208;DHT22;8720;48.488;9.202;2022-10-03T13:56:53;17.60;60.50
17208;DHT22;8720;48.488;9.202;2022-10-03T13:59:35;17.70;59.40
17208;DHT22;8720;48.488;9.202;2022-10-03T14:05:53;17.80;58.50
17208;DHT22;8720;48.488;9.202;2022-10-03T14:08:38;17.90;58.50
17208;DHT22;8720;48.488;9.202;2022-10-03T14:11:37;18.00;60.40
17208;DHT22;8720;48.488;9.202;2022-10-03T14:14:26;18.10;59.60
17208;DHT22;8720;48.488;9.202;2022-10-03T14:17:34;18.20;58.70
17208;DHT22;8720;48.488;9.202;2022-10-03T14:20:19;18.20;59.30
17208;DHT22;8720;48.488;9.202;2022-10-03T14:25:54;18.40;57.90
17208;DHT22;8720;48.488;9.202;2022-10-03T14:28:29;18.40;59.00
17208;DHT22;8720;48.488;9.202;2022-10-03T14:31:09;18.40;58.60
17208;DHT22;8720;48.488;9.202;2022-10-03T14:33:47;18.50;57.70
17208;DHT22;8720;48.488;9.202;2022-10-03T14:36:34;18.50;60.10
17208;DHT22;8720;48.488;9.202;2022-10-03T14:39:26;18.50;57.50
17208;DHT22;8720;48.488;9.202;2022-10-03T14:42:31;18.50;56.80
17208;DHT22;8720;48.488;9.202;2022-10-03T14:45:12;18.50;56.00
17208;DHT22;8720;48.488;9.202;2022-10-03T14:47:47;18.50;58.40
17208;DHT22;8720;48.488;9.202;2022-10-03T14:50:19;18.40;57.60
17208;DHT22;8720;48.488;9.202;2022-10-03T14:52:54;18.40;58.90
17208;DHT22;8720;48.488;9.202;2022-10-03T14:55:30;18.40;58.90
17208;DHT22;8720;48.488;9.202;2022-10-03T14:58:01;18.40;59.30
17208;DHT22;8720;48.488;9.202;2022-10-03T15:00:38;18.40;60.10
17208;DHT22;8720;48.488;9.202;2022-10-03T15:03:31;18.40;59.00
17208;DHT22;8720;48.488;9.202;2022-10-03T15:06:29;18.40;58.40
17208;DHT22;8720;48.488;9.202;2022-10-03T15:09:27;18.40;57.40
17208;DHT22;8720;48.488;9.202;2022-10-03T15:12:02;18.40;59.30
17208;DHT22;8720;48.488;9.202;2022-10-03T15:14:37;18.30;58.80
17208;DHT22;8720;48.488;9.202;2022-10-03T15:17:17;18.20;58.80
17208;DHT22;8720;48.488;9.202;2022-10-03T15:19:51;18.20;57.60
17208;DHT22;8720;48.488;9.202;2022-10-03T15:22:29;18.10;59.00
17208;DHT22;8720;48.488;9.202;2022-10-03T15:25:05;18.10;59.00
17208;DHT22;8720;48.488;9.202;2022-10-03T15:27:40;18.00;59.00
17208;DHT22;8720;48.488;9.202;2022-10-03T15:30:19;17.90;59.70
17208;DHT22;8720;48.488;9.202;2022-10-03T15:32:52;17.90;57.90
17208;DHT22;8720;48.488;9.202;2022-10-03T15:35:30;17.80;59.30
17208;DHT22;8720;48.488;9.202;2022-10-03T15:38:09;17.80;59.00
17208;DHT22;8720;48.488;9.202;2022-10-03T15:40:45;17.70;58.60
17208;DHT22;8720;48.488;9.202;2022-10-03T15:43:29;17.70;59.40
17208;DHT22;8720;48.488;9.202;2022-10-03T15:46:02;17.60;58.30
17208;DHT22;8720;48.488;9.202;2022-10-03T15:48:39;17.60;59.50
17208;DHT22;8720;48.488;9.202;2022-10-03T15:51:16;17.60;59.90
17208;DHT22;8720;48.488;9.202;2022-10-03T15:53:47;17.50;58.20
17208;DHT22;8720;48.488;9.202;2022-10-03T15:56:21;17.50;59.60
17208;DHT22;8720;48.488;9.202;2022-10-03T15:58:55;17.40;59.50
17208;DHT22;8720;48.488;9.202;2022-10-03T16:01:32;17.40;59.80
17208;DHT22;8720;48.488;9.202;2022-10-03T16:04:06;17.40;60.00
17208;DHT22;8720;48.488;9.202;2022-10-03T16:06:45;17.30;60.00
17208;DHT22;8720;48.488;9.202;2022-10-03T16:09:25;17.30;59.20
17208;DHT22;8720;48.488;9.202;2022-10-03T16:12:04;17.30;59.50
17208;DHT22;8720;48.488;9.202;2022-10-03T16:14:43;17.20;58.70
17208;DHT22;8720;48.488;9.202;2022-10-03T16:17:17;17.20;59.70
17208;DHT22;8720;48.488;9.202;2022-10-03T16:19:53;17.10;59.10
17208;DHT22;8720;48.488;9.202;2022-10-03T16:22:33;17.10;58.40
17208;DHT22;8720;48.488;9.202;2022-10-03T16:25:12;17.00;58.20
17208;DHT22;8720;48.488;9.202;2022-10-03T16:27:50;17.00;59.40
17208;DHT22;8720;48.488;9.202;2022-10-03T16:30:24;17.00;59.30
17208;DHT22;8720;48.488;9.202;2022-10-03T16:33:01;16.90;59.60
17208;DHT22;8720;48.488;9.202;2022-10-03T16:35:40;16.90;58.80
17208;DHT22;8720;48.488;9.202;2022-10-03T16:38:19;16.80;59.70
17208;DHT22;8720;48.488;9.202;2022-10-03T16:40:54;16.70;58.50
17208;DHT22;8720;48.488;9.202;2022-10-03T16:43:23;16.60;59.70
17208;DHT22;8720;48.488;9.202;2022-10-03T16:45:53;16.60;60.50
17208;DHT22;8720;48.488;9.202;2022-10-03T16:48:24;16.60;60.40
17208;DHT22;8720;48.488;9.202;2022-10-03T16:51:19;16.50;60.00
17208;DHT22;8720;48.488;9.202;2022-10-03T16:53:51;16.50;59.30
17208;DHT22;8720;48.488;9.202;2022-10-03T16:56:23;16.40;60.00
17208;DHT22;8720;48.488;9.202;2022-10-03T16:58:54;16.40;60.40
17208;DHT22;8720;48.488;9.202;2022-10-03T17:01:31;16.30;60.90
17208;DHT22;8720;48.488;9.202;2022-10-03T17:04:17;16.20;60.00
17208;DHT22;8720;48.488;9.202;2022-10-03T17:06:49;16.20;59.60
17208;DHT22;8720;48.488;9.202;2022-10-03T17:09:25;16.10;62.00
17208;DHT22;8720;48.488;9.202;2022-10-03T17:12:03;16.10;61.90
17208;DHT22;8720;48.488;9.202;2022-10-03T17:14:35;16.00;62.60
17208;DHT22;8720;48.488;9.202;2022-10-03T17:17:18;15.80;61.20
17208;DHT22;8720;48.488;9.202;2022-10-03T17:19:57;15.80;62.50
17208;DHT22;8720;48.488;9.202;2022-10-03T17:22:31;15.70;62.10
17208;DHT22;8720;48.488;9.202;2022-10-03T17:25:35;15.70;62.50
17208;DHT22;8720;48.488;9.202;2022-10-03T17:28:13;15.60;60.40
17208;DHT22;8720;48.488;9.202;2022-10-03T17:30:48;15.60;62.50
17208;DHT22;8720;48.488;9.202;2022-10-03T17:33:22;15.50;63.00
17208;DHT22;8720;48.488;9.202;2022-10-03T17:36:03;15.40;63.40
17208;DHT22;8720;48.488;9.202;2022-10-03T17:38:53;15.10;63.00
17208;DHT22;8720;48.488;9.202;2022-10-03T17:41:36;15.00;63.60
17208;DHT22;8720;48.488;9.202;2022-10-03T17:44:18;14.90;63.60
17208;DHT22;8720;48.488;9.202;2022-10-03T17:46:59;14.90;63.80
17208;DHT22;8720;48.488;9.202;2022-10-03T17:49:43;14.80;64.40
17208;DHT22;8720;48.488;9.202;2022-10-03T17:52:21;14.70;64.10
17208;DHT22;8720;48.488;9.202;2022-10-03T17:54:54;14.60;65.00
17208;DHT22;8720;48.488;9.202;2022-10-03T17:57:32;14.50;64.80
17208;DHT22;8720;48.488;9.202;2022-10-03T18:00:07;14.40;64.70
17208;DHT22;8720;48.488;9.202;2022-10-03T18:02:50;14.40;65.80
17208;DHT22;8720;48.488;9.202;2022-10-03T18:05:26;14.30;65.80
17208;DHT22;8720;48.488;9.202;2022-10-03T18:08:00;14.20;66.00
17208;DHT22;8720;48.488;9.202;2022-10-03T18:10:38;14.10;65.90
17208;DHT22;8720;48.488;9.202;2022-10-03T18:13:15;14.00;66.10
17208;DHT22;8720;48.488;9.202;2022-10-03T18:16:14;13.90;66.10
17208;DHT22;8720;48.488;9.202;2022-10-03T18:19:21;13.80;65.60
17208;DHT22;8720;48.488;9.202;2022-10-03T18:22:11;13.70;65.30
17208;DHT22;8720;48.488;9.202;2022-10-03T18:24:54;13.70;66.60
17208;DHT22;8720;48.488;9.202;2022-10-03T18:28:00;13.60;66.50
17208;DHT22;8720;48.488;9.202;2022-10-03T18:30:44;13.50;66.30
17208;DHT22;8720;48.488;9.202;2022-10-03T18:33:19;13.50;67.50
17208;DHT22;8720;48.488;9.202;2022-10-03T18:35:57;13.40;68.10
17208;DHT22;8720;48.488;9.202;2022-10-03T18:38:35;13.40;68.20
17208;DHT22;8720;48.488;9.202;2022-10-03T18:41:15;13.40;68.90
17208;DHT22;8720;48.488;9.202;2022-10-03T18:43:49;13.30;68.20
17208;DHT22;8720;48.488;9.202;2022-10-03T18:46:26;13.30;68.80
17208;DHT22;8720;48.488;9.202;2022-10-03T18:49:00;13.20;68.50
17208;DHT22;8720;48.488;9.202;2022-10-03T18:51:35;13.20;68.70
17208;DHT22;8720;48.488;9.202;2022-10-03T18:54:26;13.10;68.50
17208;DHT22;8720;48.488;9.202;2022-10-03T18:57:17;13.10;68.00
17208;DHT22;8720;48.488;9.202;2022-10-03T18:59:52;13.00;68.70
17208;DHT22;8720;48.488;9.202;2022-10-03T19:02:33;13.00;68.90
17208;DHT22;8720;48.488;9.202;2022-10-03T19:05:10;12.90;68.60
17208;DHT22;8720;48.488;9.202;2022-10-03T19:07:49;12.90;69.00
17208;DHT22;8720;48.488;9.202;2022-10-03T19:10:37;12.90;69.00
17208;DHT22;8720;48.488;9.202;2022-10-03T19:13:16;12.80;68.80
17208;DHT22;8720;48.488;9.202;2022-10-03T19:19:18;12.70;68.60
17208;DHT22;8720;48.488;9.202;2022-10-03T19:21:55;12.70;69.20
17208;DHT22;8720;48.488;9.202;2022-10-03T19:24:29;12.70;69.40
17208;DHT22;8720;48.488;9.202;2022-10-03T19:27:05;12.60;70.10
17208;DHT22;8720;48.488;9.202;2022-10-03T19:29:44;12.60;69.80
17208;DHT22;8720;48.488;9.202;2022-10-03T19:32:22;12.60;69.70
17208;DHT22;8720;48.488;9.202;2022-10-03T19:34:59;12.60;69.60
17208;DHT22;8720;48.488;9.202;2022-10-03T19:37:38;12.50;69.70
17208;DHT22;8720;48.488;9.202;2022-10-03T19:40:32;12.50;69.40
17208;DHT22;8720;48.488;9.202;2022-10-03T19:43:31;12.50;69.10
17208;DHT22;8720;48.488;9.202;2022-10-03T19:49:18;12.50;69.60
17208;DHT22;8720;48.488;9.202;2022-10-03T19:52:15;12.40;69.40
17208;DHT22;8720;48.488;9.202;2022-10-03T19:55:00;12.40;69.30
17208;DHT22;8720;48.488;9.202;2022-10-03T19:57:38;12.40;69.30
17208;DHT22;8720;48.488;9.202;2022-10-03T20:00:21;12.30;69.70
17208;DHT22;8720;48.488;9.202;2022-10-03T20:02:54;12.30;69.50
17208;DHT22;8720;48.488;9.202;2022-10-03T20:05:34;12.30;70.60
17208;DHT22;8720;48.488;9.202;2022-10-03T20:08:18;12.30;70.50
17208;DHT22;8720;48.488;9.202;2022-10-03T20:11:04;12.20;70.00
17208;DHT22;8720;48.488;9.202;2022-10-03T20:13:46;12.20;69.80
17208;DHT22;8720;48.488;9.202;2022-10-03T20:16:19;12.20;70.40
17208;DHT22;8720;48.488;9.202;2022-10-03T20:18:51;12.20;70.50
17208;DHT22;8720;48.488;9.202;2022-10-03T20:21:24;12.20;70.90
17208;DHT22;8720;48.488;9.202;2022-10-03T20:23:57;12.10;71.10
17208;DHT22;8720;48.488;9.202;2022-10-03T20:26:33;12.10;70.90
17208;DHT22;8720;48.488;9.202;2022-10-03T20:29:14;12.10;70.60
17208;DHT22;8720;48.488;9.202;2022-10-03T20:31:50;12.10;70.30
17208;DHT22;8720;48.488;9.202;2022-10-03T20:34:23;12.00;71.10
17208;DHT22;8720;48.488;9.202;2022-10-03T20:36:57;12.00;71.30
17208;DHT22;8720;48.488;9.202;2022-10-03T20:39:42;12.00;70.80
17208;DHT22;8720;48.488;9.202;2022-10-03T20:42:15;12.00;70.90
17208;DHT22;8720;48.488;9.202;2022-10-03T20:44:59;12.00;71.00
17208;DHT22;8720;48.488;9.202;2022-10-03T20:47:46;12.00;70.60
17208;DHT22;8720;48.488;9.202;2022-10-03T20:50:25;12.00;70.30